ロングイェールビーン の空港の天気 - METARとTAF

スヴァールバル空港 ( ENSB / LYR ) - スヴァールバル諸島・ヤンマイエン島 ロングイェールビーン
飛行場実況気象(Metar)
観測時間02/17 23:50 CET (02/17 22:50 UTC)
風向・風速北北西 4m/s
視程10km以上
天気現象弱い雪
全天の4割程度の雲 雲底高度 430m
全天の8割程度の雲 雲底高度 760m
気温-21℃
湿度64%
気圧1017hPa
METARENSB 172250Z 33008KT 310V020 9999 -SN SCT014 BKN025 M21/M26 Q1017 RMK WIND 1400FT 01009KT
過去の天気等 Google飛行場航空写真 Wunderground天気予報

過去48時間のMETAR

飛行場予報(TAF)
発表時間: -
18日7時 CET ~ 18日19時 CET に一時的に
風向・風速東南東 4m/s
TAF ENSB 1718/1818 34012KT 9999 FEW015 BKN030
TEMPO 1806/1818 12008KT